createdAt,value
2018-09-04T00:00:11.204Z,21.20
2018-09-04T00:02:39.608Z,24.13
2018-09-04T00:05:08.136Z,22.30
2018-09-04T00:07:36.540Z,25.27
2018-09-04T00:10:06.299Z,23.40
2018-09-04T00:12:35.032Z,22.70
2018-09-04T00:15:03.467Z,21.67
2018-09-04T00:17:31.856Z,25.03
2018-09-04T00:20:00.481Z,24.57
2018-09-04T00:22:28.965Z,21.60
2018-09-04T00:24:57.440Z,19.93
2018-09-04T00:27:25.853Z,23.97
2018-09-04T00:29:54.308Z,23.37
2018-09-04T00:32:22.692Z,22.93
2018-09-04T00:34:51.098Z,24.30
2018-09-04T00:37:19.640Z,24.23
2018-09-04T00:39:48.684Z,22.47
2018-09-04T00:42:17.064Z,24.13
2018-09-04T00:44:45.460Z,22.23
2018-09-04T00:47:13.872Z,22.87
2018-09-04T00:49:42.251Z,22.17
2018-09-04T00:52:10.745Z,28.13
2018-09-04T00:54:39.153Z,23.87
2018-09-04T00:57:07.822Z,27.73
2018-09-04T00:59:36.300Z,25.03
2018-09-04T01:02:04.738Z,27.37
2018-09-04T01:04:33.157Z,27.47
2018-09-04T01:07:01.572Z,29.20
2018-09-04T01:09:30.056Z,24.33
2018-09-04T01:11:58.475Z,26.63
2018-09-04T01:14:26.860Z,28.63
2018-09-04T01:16:55.272Z,29.20
2018-09-04T01:19:23.707Z,29.90
2018-09-04T01:21:52.115Z,29.87
2018-09-04T01:24:20.573Z,26.00
2018-09-04T01:26:48.955Z,30.13
2018-09-04T01:29:17.464Z,30.10
2018-09-04T01:31:45.868Z,28.80
2018-09-04T01:34:14.310Z,30.97
2018-09-04T01:36:42.682Z,29.80
2018-09-04T01:39:11.069Z,31.03
2018-09-04T01:41:39.460Z,29.10
2018-09-04T01:44:07.840Z,29.20
2018-09-04T01:46:36.340Z,26.47
2018-09-04T01:49:04.786Z,27.10
2018-09-04T01:51:33.188Z,29.00
2018-09-04T01:54:01.580Z,27.33
2018-09-04T01:56:36.645Z,30.80
2018-09-04T01:59:05.239Z,27.53
2018-09-04T02:01:34.338Z,29.40
2018-09-04T02:04:02.766Z,30.97
2018-09-04T02:06:31.201Z,29.67
2018-09-04T02:08:59.596Z,31.60
2018-09-04T02:11:27.988Z,33.97
2018-09-04T02:13:56.385Z,31.07
2018-09-04T02:16:24.856Z,30.63
2018-09-04T02:18:53.406Z,32.80
2018-09-04T02:21:21.795Z,31.07
2018-09-04T02:23:50.200Z,30.57
2018-09-04T02:26:18.625Z,29.73
2018-09-04T02:28:47.122Z,36.37
2018-09-04T02:31:15.512Z,29.10
2018-09-04T02:33:43.884Z,36.93
2018-09-04T02:36:12.269Z,32.43
2018-09-04T02:38:40.696Z,31.60
2018-09-04T02:41:09.440Z,33.30
2018-09-04T02:43:37.885Z,35.17
2018-09-04T02:46:06.326Z,34.97
2018-09-04T02:48:34.825Z,32.70
2018-09-04T02:51:03.298Z,32.93
2018-09-04T02:53:31.675Z,33.50
2018-09-04T02:56:00.136Z,34.47
2018-09-04T02:58:28.592Z,34.73
2018-09-04T03:00:57.132Z,34.30
2018-09-04T03:03:25.503Z,34.50
2018-09-04T03:05:53.884Z,36.43
2018-09-04T03:08:22.256Z,32.50
2018-09-04T03:10:50.648Z,31.00
2018-09-04T03:13:19.122Z,34.30
2018-09-04T03:15:47.495Z,35.13
2018-09-04T03:18:15.876Z,34.50
2018-09-04T03:20:44.289Z,31.50
2018-09-04T03:23:12.751Z,35.83
2018-09-04T03:25:41.133Z,31.63
2018-09-04T03:28:09.575Z,35.57
2018-09-04T03:30:38.036Z,33.93
2018-09-04T03:33:06.628Z,38.77
2018-09-04T03:35:35.025Z,37.80
2018-09-04T03:38:03.422Z,37.73
2018-09-04T03:40:31.872Z,37.00
2018-09-04T03:43:00.344Z,35.20
2018-09-04T03:45:28.723Z,36.80
2018-09-04T03:47:57.126Z,31.37
2018-09-04T03:50:25.500Z,33.33
2018-09-04T03:52:53.955Z,36.93
2018-09-04T03:55:22.374Z,37.93
2018-09-04T03:57:50.809Z,34.83
2018-09-04T04:00:19.230Z,30.07
2018-09-04T04:02:47.642Z,36.97
2018-09-04T04:05:16.084Z,33.33
2018-09-04T04:07:45.537Z,33.77
2018-09-04T04:10:14.181Z,29.50
2018-09-04T04:12:42.589Z,37.63
2018-09-04T04:15:10.989Z,36.30
2018-09-04T04:17:39.406Z,40.07
2018-09-04T04:20:07.946Z,34.90
2018-09-04T04:22:36.400Z,33.43
2018-09-04T04:25:04.903Z,33.17
2018-09-04T04:27:33.307Z,39.57
2018-09-04T04:30:01.835Z,32.77
2018-09-04T04:32:31.648Z,40.43
2018-09-04T04:35:00.133Z,34.73
2018-09-04T04:37:28.702Z,38.90
2018-09-04T04:39:57.193Z,40.83
2018-09-04T04:42:25.535Z,33.60
2018-09-04T04:44:53.964Z,40.17
2018-09-04T04:47:27.611Z,42.87
2018-09-04T04:49:56.099Z,37.90
2018-09-04T04:52:24.752Z,38.07
2018-09-04T04:54:53.184Z,36.90
2018-09-04T04:57:21.612Z,37.47
2018-09-04T04:59:50.005Z,37.70
2018-09-04T05:02:18.577Z,37.93
2018-09-04T05:04:46.981Z,39.80
2018-09-04T05:07:15.377Z,34.90
2018-09-04T05:09:45.045Z,38.87
2018-09-04T05:12:13.501Z,32.17
2018-09-04T05:14:42.008Z,34.77
2018-09-04T05:17:10.492Z,37.70
2018-09-04T05:19:39.001Z,39.33
2018-09-04T05:22:07.384Z,42.67
2018-09-04T05:24:35.766Z,39.03
2018-09-04T05:27:04.210Z,33.90
2018-09-04T05:29:32.777Z,33.17
2018-09-04T05:33:05.215Z,36.43
2018-09-04T05:35:38.468Z,33.90
2018-09-04T05:38:06.911Z,32.80
2018-09-04T05:40:35.282Z,28.73
2018-09-04T05:43:05.773Z,35.80
2018-09-04T05:45:35.070Z,33.80
2018-09-04T05:48:10.815Z,31.17
2018-09-04T05:50:39.357Z,32.57
2018-09-04T05:53:07.775Z,31.60
2018-09-04T05:55:36.239Z,33.10
2018-09-04T05:58:04.631Z,31.67
2018-09-04T06:00:43.473Z,31.67
2018-09-04T06:03:12.058Z,29.07
2018-09-04T06:05:40.696Z,30.70
2018-09-04T06:08:09.157Z,33.37
2018-09-04T06:10:37.568Z,32.23
2018-09-04T06:13:06.061Z,29.07
2018-09-04T06:15:34.446Z,34.20
2018-09-04T06:18:02.857Z,39.00
2018-09-04T06:20:31.230Z,36.93
2018-09-04T06:22:59.637Z,33.43
2018-09-04T06:25:27.995Z,36.80
2018-09-04T06:27:56.415Z,34.50
2018-09-04T06:30:24.906Z,36.23
2018-09-04T06:32:53.309Z,34.93
2018-09-04T06:35:21.717Z,29.50
2018-09-04T06:37:50.085Z,34.60
2018-09-04T06:40:18.478Z,36.77
2018-09-04T06:42:46.891Z,36.70
2018-09-04T06:45:15.289Z,35.27
2018-09-04T06:47:45.676Z,36.53
2018-09-04T06:50:14.112Z,39.23
2018-09-04T06:52:42.487Z,39.03
2018-09-04T06:55:11.016Z,37.23
2018-09-04T06:57:39.392Z,40.63
2018-09-04T07:00:10.488Z,38.90
2018-09-04T07:02:38.870Z,38.77
2018-09-04T07:05:08.048Z,42.50
2018-09-04T07:07:36.452Z,40.97
2018-09-04T07:10:04.962Z,36.87
2018-09-04T07:12:33.444Z,38.23
2018-09-04T07:15:01.906Z,36.37
2018-09-04T07:17:30.290Z,33.90
2018-09-04T07:19:58.715Z,41.13
2018-09-04T07:22:27.128Z,41.00
2018-09-04T07:24:55.533Z,41.77
2018-09-04T07:27:23.944Z,41.40
2018-09-04T07:29:52.429Z,40.73
2018-09-04T07:32:20.819Z,40.90
2018-09-04T07:34:49.204Z,38.80
2018-09-04T07:37:17.693Z,36.93
2018-09-04T07:39:46.098Z,34.30
2018-09-04T07:42:14.509Z,37.10
2018-09-04T07:44:42.908Z,38.70
2018-09-04T07:47:11.324Z,35.57
2018-09-04T07:49:39.744Z,37.33
2018-09-04T07:52:08.264Z,38.83
2018-09-04T07:54:36.687Z,34.57
2018-09-04T07:57:05.125Z,36.43
2018-09-04T07:59:33.550Z,32.57
2018-09-04T08:02:02.395Z,34.23
2018-09-04T08:04:30.797Z,35.43
2018-09-04T08:06:59.240Z,32.00
2018-09-04T08:09:27.655Z,30.40
2018-09-04T08:11:56.046Z,31.70
2018-09-04T08:14:24.505Z,30.77
2018-09-04T08:16:52.936Z,32.70
2018-09-04T08:19:21.324Z,32.57
2018-09-04T08:21:49.740Z,32.60
2018-09-04T08:24:18.132Z,30.33
2018-09-04T08:26:46.635Z,30.33
2018-09-04T08:29:15.037Z,30.57
2018-09-04T08:31:43.560Z,30.93
2018-09-04T08:34:12.129Z,34.23
2018-09-04T08:36:40.529Z,32.13
2018-09-04T08:39:09.483Z,28.83
2018-09-04T08:41:37.932Z,29.80
2018-09-04T08:44:06.380Z,30.17
2018-09-04T08:46:35.124Z,27.90
2018-09-04T08:49:03.521Z,26.13
2018-09-04T08:51:31.990Z,33.20
2018-09-04T08:54:00.608Z,29.47
2018-09-04T08:56:29.032Z,27.07
2018-09-04T08:58:57.427Z,31.47
2018-09-04T09:01:25.849Z,28.10
2018-09-04T09:03:54.306Z,28.17
2018-09-04T09:06:22.709Z,27.83
2018-09-04T09:08:51.108Z,26.90
2018-09-04T09:11:19.610Z,27.73
2018-09-04T09:13:48.012Z,22.60
2018-09-04T09:16:16.531Z,20.60
2018-09-04T09:18:45.002Z,21.67
2018-09-04T09:21:13.401Z,20.20
2018-09-04T09:23:42.059Z,21.23
2018-09-04T09:26:10.548Z,20.40
2018-09-04T09:28:38.928Z,19.33
2018-09-04T09:31:07.390Z,21.00
2018-09-04T09:33:35.804Z,22.03
2018-09-04T09:36:04.217Z,20.87
2018-09-04T09:38:32.644Z,20.70
2018-09-04T09:41:01.090Z,25.20
2018-09-04T09:43:29.534Z,23.93
2018-09-04T09:45:57.915Z,21.53
2018-09-04T09:48:33.868Z,21.60
2018-09-04T09:51:02.287Z,22.40
2018-09-04T09:53:30.913Z,24.07
2018-09-04T09:55:59.114Z,21.87
2018-09-04T09:58:27.540Z,19.67
2018-09-04T10:01:01.285Z,21.70
2018-09-04T10:03:34.954Z,21.73
2018-09-04T10:06:03.312Z,21.93
2018-09-04T10:08:31.776Z,20.90
2018-09-04T10:11:00.175Z,20.90
2018-09-04T10:13:28.627Z,19.33
2018-09-04T10:15:57.037Z,18.60
2018-09-04T10:18:25.449Z,19.13
2018-09-04T10:20:53.850Z,18.50
2018-09-04T10:23:22.286Z,18.50
2018-09-04T10:25:50.856Z,15.63
2018-09-04T10:28:19.326Z,16.00
2018-09-04T10:30:47.740Z,19.70
2018-09-04T10:33:16.154Z,17.07
2018-09-04T10:35:44.554Z,17.23
2018-09-04T10:38:13.015Z,16.07
2018-09-04T10:40:43.463Z,16.83
2018-09-04T10:43:11.816Z,15.67
2018-09-04T10:45:45.513Z,15.17
2018-09-04T10:48:15.309Z,15.13
2018-09-04T10:50:43.708Z,16.23
2018-09-04T10:53:12.112Z,14.63
2018-09-04T10:55:40.561Z,13.27
2018-09-04T10:58:08.955Z,14.20
2018-09-04T11:00:37.442Z,15.77
2018-09-04T11:03:05.855Z,12.77
2018-09-04T11:05:34.338Z,14.70
2018-09-04T11:08:02.730Z,12.67
2018-09-04T11:10:31.163Z,13.50
2018-09-04T11:12:59.605Z,12.23
2018-09-04T11:15:28.044Z,13.17
2018-09-04T11:17:56.614Z,14.40
2018-09-04T11:20:25.282Z,13.77
2018-09-04T11:22:53.687Z,12.83
2018-09-04T11:25:22.113Z,13.80
2018-09-04T11:27:50.548Z,12.33
2018-09-04T11:30:18.980Z,11.20
2018-09-04T11:32:47.406Z,13.03
2018-09-04T11:35:15.817Z,12.73
2018-09-04T11:37:44.260Z,12.30
2018-09-04T11:40:12.721Z,12.18
2018-09-04T11:42:41.519Z,12.70
2018-09-04T11:45:10.501Z,13.00
2018-09-04T11:47:41.251Z,12.30
2018-09-04T11:50:10.330Z,12.55
2018-09-04T11:52:39.244Z,11.43
2018-09-04T11:55:08.773Z,12.85
2018-09-04T11:57:37.174Z,11.28
2018-09-04T12:00:07.091Z,12.73
2018-09-04T12:02:37.230Z,11.73
2018-09-04T12:05:05.833Z,12.13
2018-09-04T12:07:34.229Z,11.93
2018-09-04T12:10:02.673Z,11.30
2018-09-04T12:12:32.364Z,11.70
2018-09-04T12:15:00.621Z,12.75
2018-09-04T12:17:29.034Z,12.07
2018-09-04T12:20:10.261Z,12.00
2018-09-04T12:22:38.939Z,12.03
2018-09-04T12:25:07.426Z,16.62
2018-09-04T12:27:35.811Z,14.30
2018-09-04T12:30:04.305Z,13.93
2018-09-04T12:32:32.716Z,15.07
2018-09-04T12:35:01.132Z,14.95
2018-09-04T12:37:29.587Z,15.83
2018-09-04T12:39:58.408Z,14.77
2018-09-04T12:42:27.643Z,15.33
2018-09-04T12:44:58.132Z,14.47
2018-09-04T12:47:26.528Z,15.17
2018-09-04T12:49:55.945Z,13.13
2018-09-04T12:52:24.401Z,14.70
2018-09-04T12:54:52.857Z,14.20
2018-09-04T12:57:21.293Z,14.57
2018-09-04T12:59:49.687Z,14.20
2018-09-04T13:02:18.200Z,14.13
2018-09-04T13:04:46.812Z,15.13
2018-09-04T13:07:15.200Z,15.23
2018-09-04T13:09:43.673Z,13.53
2018-09-04T13:12:12.130Z,14.97
2018-09-04T13:14:40.685Z,14.10
2018-09-04T13:17:09.060Z,13.87
2018-09-04T13:19:38.280Z,14.10
2018-09-04T13:22:06.736Z,13.13
2018-09-04T13:24:35.344Z,14.73
2018-09-04T13:27:03.804Z,14.58
2018-09-04T13:29:32.188Z,14.80
2018-09-04T13:32:00.596Z,14.00
2018-09-04T13:34:29.156Z,14.23
2018-09-04T13:36:57.532Z,15.03
2018-09-04T13:39:25.968Z,15.27
2018-09-04T13:41:54.371Z,14.73
2018-09-04T13:44:22.843Z,13.63
2018-09-04T13:46:51.896Z,14.70
2018-09-04T13:49:20.424Z,13.87
2018-09-04T13:51:48.775Z,13.90
2018-09-04T13:54:17.159Z,14.83
2018-09-04T13:56:45.584Z,16.33
2018-09-04T13:59:13.984Z,13.57
2018-09-04T14:01:42.412Z,14.53
2018-09-04T14:04:10.876Z,15.80
2018-09-04T14:06:39.309Z,13.60
2018-09-04T14:09:08.340Z,15.47
2018-09-04T14:11:36.756Z,13.77
2018-09-04T14:14:05.241Z,15.23
2018-09-04T14:16:43.153Z,13.57
2018-09-04T14:19:02.112Z,13.40
2018-09-04T14:21:30.748Z,14.17
2018-09-04T14:23:59.223Z,13.50
2018-09-04T14:26:27.746Z,14.80
2018-09-04T14:29:07.675Z,13.97
2018-09-04T14:31:24.560Z,14.87
2018-09-04T14:33:53.171Z,13.73
2018-09-04T14:36:21.686Z,13.77
2018-09-04T14:38:50.029Z,13.28
2018-09-04T14:41:18.504Z,13.23
2018-09-04T14:43:46.933Z,11.93
2018-09-04T14:46:15.348Z,13.40
2018-09-04T14:48:43.827Z,12.10
2018-09-04T14:51:12.397Z,12.67
2018-09-04T14:53:41.035Z,12.67
2018-09-04T14:56:09.461Z,13.53
2018-09-04T14:58:37.863Z,13.32
2018-09-04T15:01:06.337Z,12.43
2018-09-04T15:03:34.756Z,12.98
2018-09-04T15:06:03.212Z,12.03
2018-09-04T15:08:31.540Z,14.07
2018-09-04T15:10:59.960Z,12.43
2018-09-04T15:13:28.365Z,13.40
2018-09-04T15:15:56.842Z,14.07
2018-09-04T15:18:25.200Z,13.43
2018-09-04T15:20:53.643Z,13.30
2018-09-04T15:23:22.044Z,12.93
2018-09-04T15:25:50.462Z,13.83
2018-09-04T15:28:18.870Z,12.75
2018-09-04T15:30:47.524Z,30.93
2018-09-04T15:33:15.950Z,25.00
2018-09-04T15:35:44.432Z,25.93
2018-09-04T15:38:12.966Z,33.43
2018-09-04T15:40:41.428Z,17.70
2018-09-04T15:43:09.860Z,15.53
2018-09-04T15:45:38.255Z,16.73
2018-09-04T15:48:06.667Z,27.60
2018-09-04T15:50:35.098Z,28.13
2018-09-04T15:53:03.629Z,22.87
2018-09-04T15:55:32.090Z,25.20
2018-09-04T15:58:00.490Z,24.87
2018-09-04T16:00:28.941Z,31.00
2018-09-04T16:02:57.417Z,33.30
2018-09-04T16:05:27.019Z,33.03
2018-09-04T16:07:56.244Z,33.83
2018-09-04T16:10:24.758Z,34.17
2018-09-04T16:12:53.063Z,22.67
2018-09-04T16:15:21.495Z,27.87
2018-09-04T16:17:50.018Z,20.80
2018-09-04T16:20:18.490Z,22.17
2018-09-04T16:22:46.911Z,29.67
2018-09-04T16:25:15.341Z,32.43
2018-09-04T16:27:43.739Z,33.13
2018-09-04T16:30:12.396Z,36.57
2018-09-04T16:32:40.817Z,34.93
2018-09-04T16:35:09.309Z,39.77
2018-09-04T16:37:37.716Z,44.37
2018-09-04T16:40:06.246Z,48.80
2018-09-04T16:42:34.773Z,41.77
2018-09-04T16:45:03.218Z,48.73
2018-09-04T16:47:32.061Z,51.00
2018-09-04T16:50:00.597Z,53.87
2018-09-04T16:52:29.065Z,52.90
2018-09-04T16:54:57.657Z,50.17
2018-09-04T16:57:26.261Z,45.57
2018-09-04T16:59:54.669Z,48.33
2018-09-04T17:02:23.590Z,47.27
2018-09-04T17:04:52.020Z,53.70
2018-09-04T17:07:20.430Z,57.07
2018-09-04T17:09:48.931Z,43.50
2018-09-04T17:12:17.396Z,49.77
2018-09-04T17:14:45.873Z,45.90
2018-09-04T17:17:14.285Z,42.43
2018-09-04T17:19:42.831Z,42.40
2018-09-04T17:22:11.277Z,55.60
2018-09-04T17:24:39.696Z,51.80
2018-09-04T17:27:08.140Z,50.73
2018-09-04T17:29:36.607Z,55.50
2018-09-04T17:32:05.067Z,45.20
2018-09-04T17:34:33.514Z,42.50
2018-09-04T17:37:01.976Z,47.97
2018-09-04T17:39:30.409Z,41.80
2018-09-04T17:41:58.841Z,48.13
2018-09-04T17:44:27.556Z,52.43
2018-09-04T17:46:56.035Z,61.83
2018-09-04T17:49:24.492Z,54.37
2018-09-04T17:51:53.008Z,50.83
2018-09-04T17:54:21.405Z,58.37
2018-09-04T17:56:49.897Z,51.17
2018-09-04T17:59:18.328Z,48.43
2018-09-04T18:01:46.745Z,46.20
2018-09-04T18:04:15.247Z,44.60
2018-09-04T18:06:43.656Z,41.70
2018-09-04T18:09:12.140Z,47.70
2018-09-04T18:11:40.628Z,42.83
2018-09-04T18:14:09.096Z,39.93
2018-09-04T18:16:37.904Z,42.67
2018-09-04T18:19:06.352Z,41.27
2018-09-04T18:21:34.836Z,51.10
2018-09-04T18:24:03.320Z,42.10
2018-09-04T18:26:31.910Z,43.33
2018-09-04T18:29:00.337Z,43.43
2018-09-04T18:31:28.780Z,50.43
2018-09-04T18:33:57.204Z,42.47
2018-09-04T18:36:25.751Z,48.17
2018-09-04T18:38:54.248Z,47.87
2018-09-04T18:41:22.701Z,47.40
2018-09-04T18:43:51.622Z,48.93
2018-09-04T18:46:20.065Z,38.67
2018-09-04T18:48:48.611Z,46.73
2018-09-04T18:51:17.040Z,44.60
2018-09-04T18:53:45.497Z,50.90
2018-09-04T18:56:14.005Z,51.47
2018-09-04T18:58:42.827Z,54.33
2018-09-04T19:01:11.535Z,59.67
2018-09-04T19:03:40.408Z,54.73
2018-09-04T19:06:09.060Z,49.33
2018-09-04T19:08:37.709Z,51.97
2018-09-04T19:11:06.365Z,51.83
2018-09-04T19:13:35.552Z,56.60
2018-09-04T19:16:04.523Z,67.77
2018-09-04T19:18:33.335Z,48.30
2018-09-04T19:21:01.755Z,61.00
2018-09-04T19:23:30.258Z,57.17
2018-09-04T19:25:59.016Z,57.20
2018-09-04T19:28:27.878Z,58.50
2018-09-04T19:30:56.520Z,68.37
2018-09-04T19:33:25.650Z,63.90
2018-09-04T19:35:54.941Z,63.97
2018-09-04T19:38:23.384Z,72.50
2018-09-04T19:40:52.215Z,68.87
2018-09-04T19:43:20.751Z,72.67
2018-09-04T19:45:49.341Z,59.30
2018-09-04T19:48:17.814Z,70.77
2018-09-04T19:50:46.292Z,62.93
2018-09-04T19:53:14.832Z,70.63
2018-09-04T19:55:43.236Z,62.57
2018-09-04T19:58:11.696Z,67.10
2018-09-04T20:00:40.310Z,60.03
2018-09-04T20:03:08.812Z,63.67
2018-09-04T20:05:37.356Z,61.73
2018-09-04T20:08:05.870Z,66.93
2018-09-04T20:10:34.312Z,62.47
2018-09-04T20:13:02.892Z,55.03
2018-09-04T20:15:31.648Z,62.37
2018-09-04T20:18:00.090Z,60.37
2018-09-04T20:20:28.984Z,65.33
2018-09-04T20:22:57.487Z,57.13
2018-09-04T20:25:25.973Z,68.33
2018-09-04T20:27:54.460Z,67.57
2018-09-04T20:30:22.961Z,57.03
2018-09-04T20:32:51.459Z,54.27
2018-09-04T20:35:19.967Z,54.17
2018-09-04T20:37:48.356Z,58.50
2018-09-04T20:40:16.861Z,56.03
2018-09-04T20:42:45.312Z,51.73
2018-09-04T20:45:13.958Z,61.67
2018-09-04T20:47:42.571Z,61.33
2018-09-04T20:50:11.125Z,57.67
2018-09-04T20:52:39.624Z,59.77
2018-09-04T20:55:08.224Z,61.97
2018-09-04T20:57:37.196Z,57.97
2018-09-04T21:00:18.520Z,60.73
2018-09-04T21:02:58.180Z,59.87
2018-09-04T21:05:37.920Z,74.73
2018-09-04T21:08:17.596Z,82.13
2018-09-04T21:10:46.967Z,64.13
2018-09-04T21:13:15.942Z,53.57
2018-09-04T21:15:44.676Z,61.80
2018-09-04T21:18:13.279Z,58.93
2018-09-04T21:20:41.789Z,53.20
2018-09-04T21:23:10.272Z,62.80
2018-09-04T21:25:38.744Z,52.73
2018-09-04T21:28:07.355Z,56.70
2018-09-04T21:30:35.776Z,62.80
2018-09-04T21:33:05.136Z,62.87
2018-09-04T21:35:33.878Z,54.07
2018-09-04T21:38:03.029Z,57.83
2018-09-04T21:40:31.492Z,68.20
2018-09-04T21:42:59.972Z,49.83
2018-09-04T21:45:28.619Z,54.10
2018-09-04T21:47:57.445Z,51.83
2018-09-04T21:50:26.045Z,42.73
2018-09-04T21:52:55.129Z,46.50
2018-09-04T21:55:23.812Z,44.27
2018-09-04T21:57:52.426Z,55.90
2018-09-04T22:00:26.238Z,46.43
2018-09-04T22:02:56.200Z,45.27
2018-09-04T22:05:25.523Z,46.23
2018-09-04T22:07:55.244Z,40.83
2018-09-04T22:10:24.424Z,38.30
2018-09-04T22:12:52.881Z,55.53
2018-09-04T22:15:21.528Z,41.70
2018-09-04T22:18:37.764Z,39.90
2018-09-04T22:21:06.980Z,55.97
2018-09-04T22:23:36.308Z,49.83
2018-09-04T22:26:05.479Z,66.83
2018-09-04T22:28:34.471Z,45.57
2018-09-04T22:31:02.915Z,62.17
2018-09-04T22:33:31.443Z,48.10
2018-09-04T22:36:00.081Z,46.93
2018-09-04T22:38:28.520Z,56.37
2018-09-04T22:40:56.959Z,48.93
2018-09-04T22:43:25.392Z,55.27
2018-09-04T22:45:54.114Z,52.90
2018-09-04T22:48:22.794Z,49.13
2018-09-04T22:50:56.884Z,46.47
2018-09-04T22:53:27.827Z,52.93
2018-09-04T22:55:56.273Z,51.47
2018-09-04T22:58:25.140Z,51.30
2018-09-04T23:00:53.787Z,54.87
2018-09-04T23:03:22.186Z,66.97
2018-09-04T23:05:54.277Z,55.33
2018-09-04T23:08:23.617Z,60.80
2018-09-04T23:10:52.084Z,47.53
2018-09-04T23:13:20.489Z,44.30
2018-09-04T23:15:48.908Z,49.73
2018-09-04T23:18:17.376Z,47.43
2018-09-04T23:20:45.780Z,63.87
2018-09-04T23:23:14.152Z,43.27
2018-09-04T23:25:42.563Z,58.67
2018-09-04T23:28:10.980Z,57.10
2018-09-04T23:30:39.433Z,49.47
2018-09-04T23:33:07.855Z,47.00
2018-09-04T23:35:36.374Z,46.80
2018-09-04T23:38:05.098Z,46.97
2018-09-04T23:40:35.436Z,44.53
2018-09-04T23:43:04.023Z,47.57
2018-09-04T23:45:32.644Z,50.30
2018-09-04T23:48:01.213Z,42.23
2018-09-04T23:50:31.073Z,42.17
2018-09-04T23:52:59.707Z,42.87
2018-09-04T23:55:28.482Z,45.00
2018-09-04T23:57:57.015Z,39.33
